Time;durP1;ratioP1;P1;durP2;ratioP2;P2;SDS_P1;SDS_P2;PMS_P1;PMS_P2;Temp;Humidity;BMP_temperature;BMP_pressure;BME280_temperature;BME280_humidity;BME280_pressure;Samples;Min_cycle;Max_cycle;Signal;HPM_P1;HPM_P2
2023/06/22 00:01:12;;;;;;;8.83;6.10;;;;;;;21.33;96.20;98649.09;4965099;28;20299;-65
2023/06/22 00:03:38;;;;;;;8.50;6.53;;;;;;;21.46;94.54;98674.69;4975230;28;20234;-64
2023/06/22 00:06:05;;;;;;;9.23;6.13;;;;;;;21.74;90.97;98718.53;4973997;28;20239;-64
2023/06/22 00:08:31;;;;;;;9.63;6.10;;;;;;;22.04;89.47;98777.06;4960922;28;20233;-64
2023/06/22 00:10:59;;;;;;;12.77;6.20;;;;;;;22.40;85.57;98854.38;4973948;28;20376;-64
2023/06/22 00:13:26;;;;;;;9.73;6.67;;;;;;;22.53;88.08;98832.16;4972150;28;20243;-65
2023/06/22 00:15:53;;;;;;;13.13;7.87;;;;;;;22.45;89.24;98780.06;4973047;28;20987;-65
2023/06/22 00:18:20;;;;;;;13.30;7.50;;;;;;;22.33;89.60;98737.47;4971349;28;20224;-65
2023/06/22 00:20:46;;;;;;;11.20;7.57;;;;;;;22.20;90.96;98716.34;4970534;28;20228;-65
2023/06/22 00:23:15;;;;;;;11.17;7.70;;;;;;;22.04;91.61;98707.97;4961272;28;20232;-65
2023/06/22 00:25:42;;;;;;;10.70;7.40;;;;;;;21.85;92.99;98701.88;4976662;28;20215;-65
2023/06/22 00:28:10;;;;;;;12.57;7.60;;;;;;;21.72;94.03;98694.03;4978273;28;20215;-63
2023/06/22 00:30:37;;;;;;;12.67;7.43;;;;;;;21.59;95.59;98676.41;4977382;28;20697;-64
2023/06/22 00:33:07;;;;;;;9.80;6.87;;;;;;;21.49;96.01;98660.97;4977105;28;20275;-65
2023/06/22 00:35:34;;;;;;;11.23;7.40;;;;;;;21.39;96.40;98654.31;4977729;28;20322;-65
2023/06/22 00:38:03;;;;;;;9.33;6.93;;;;;;;21.33;97.06;98665.81;4980344;28;21560;-64
2023/06/22 00:40:30;;;;;;;12.37;7.00;;;;;;;21.28;97.51;98659.56;4960146;28;20231;-64
2023/06/22 00:42:58;;;;;;;10.97;6.63;;;;;;;21.21;97.99;98656.97;4958719;28;20241;-64
2023/06/22 00:45:26;;;;;;;11.37;7.13;;;;;;;21.14;99.02;98650.94;4959395;28;20243;-64
2023/06/22 00:47:54;;;;;;;14.70;7.53;;;;;;;21.13;98.98;98650.09;4975385;28;20238;-64
2023/06/22 00:50:27;;;;;;;8.23;6.67;;;;;;;21.07;99.42;98654.47;4954969;28;20233;-64
2023/06/22 00:52:58;;;;;;;8.97;5.90;;;;;;;21.03;99.69;98640.00;4957479;28;20237;-64
2023/06/22 00:55:25;;;;;;;9.37;6.83;;;;;;;20.89;100.00;98623.38;4958514;28;20803;-64
2023/06/22 00:57:55;;;;;;;13.87;6.67;;;;;;;20.91;100.00;98625.81;4979474;28;20714;-64
2023/06/22 01:00:26;;;;;;;12.73;6.50;;;;;;;20.91;100.00;98620.53;4975960;28;20223;-64
2023/06/22 01:02:54;;;;;;;11.83;6.90;;;;;;;20.91;100.00;98617.88;4959360;28;20693;-64
2023/06/22 01:05:25;;;;;;;12.63;6.40;;;;;;;20.92;99.65;98617.63;4956929;28;20597;-64
2023/06/22 01:08:02;;;;;;;11.33;6.43;;;;;;;20.93;99.22;98613.16;4960935;28;20310;-64
2023/06/22 01:10:35;;;;;;;11.47;6.53;;;;;;;20.95;99.43;98611.09;4972608;28;20660;-64
2023/06/22 01:13:05;;;;;;;12.97;5.77;;;;;;;20.90;99.31;98608.28;4975469;28;20238;-64
2023/06/22 01:15:39;;;;;;;10.20;5.70;;;;;;;20.86;99.95;98620.38;4956227;28;20228;-64
2023/06/22 01:18:08;;;;;;;11.23;6.50;;;;;;;20.83;100.00;98632.19;4956500;28;20226;-64
2023/06/22 01:20:37;;;;;;;8.77;5.60;;;;;;;20.82;99.77;98633.22;4977779;28;20240;-64
2023/06/22 01:23:18;;;;;;;9.63;5.70;;;;;;;20.80;99.92;98643.25;4958740;28;20292;-64
2023/06/22 01:25:48;;;;;;;12.43;5.87;;;;;;;20.76;99.63;98640.19;4975670;28;20777;-64
2023/06/22 01:28:26;;;;;;;10.90;6.30;;;;;;;20.75;99.81;98643.88;4973044;28;20234;-64
2023/06/22 01:31:03;;;;;;;9.57;6.27;;;;;;;20.70;100.00;98643.72;4978900;28;20364;-64
2023/06/22 01:33:31;;;;;;;8.17;5.93;;;;;;;20.65;100.00;98641.72;4972717;28;20236;-64
2023/06/22 01:35:59;;;;;;;10.43;6.33;;;;;;;20.63;100.00;98637.66;4957187;28;20227;-64
2023/06/22 01:38:26;;;;;;;11.57;6.17;;;;;;;20.49;100.00;98634.31;4974664;28;20699;-64
2023/06/22 01:40:53;;;;;;;8.90;6.00;;;;;;;20.40;100.00;98627.63;4954880;28;20869;-64
2023/06/22 01:43:22;;;;;;;12.73;6.20;;;;;;;20.38;100.00;98624.38;4955728;28;20762;-64
2023/06/22 01:45:49;;;;;;;10.23;5.70;;;;;;;20.27;100.00;98632.00;4971648;28;20683;-64
2023/06/22 01:48:18;;;;;;;13.97;5.93;;;;;;;20.25;100.00;98635.88;4945336;28;20293;-64
2023/06/22 01:50:44;;;;;;;14.17;6.20;;;;;;;20.21;100.00;98632.84;4957148;28;20632;-64
2023/06/22 01:53:11;;;;;;;12.87;6.10;;;;;;;20.19;100.00;98634.91;4972443;28;20236;-64
2023/06/22 01:55:38;;;;;;;8.27;5.90;;;;;;;20.16;100.00;98630.03;4960669;28;20234;-64
2023/06/22 01:58:04;;;;;;;11.13;5.73;;;;;;;20.15;100.00;98626.56;4954123;28;20242;-64
2023/06/22 02:00:35;;;;;;;10.03;6.03;;;;;;;20.19;100.00;98629.59;4958112;28;20231;-64
2023/06/22 02:03:06;;;;;;;9.20;5.53;;;;;;;20.19;100.00;98626.94;4958882;28;20247;-64
2023/06/22 02:05:42;;;;;;;12.52;6.65;;;;;;;20.11;100.00;98630.69;4973352;28;20351;-64
2023/06/22 02:08:12;;;;;;;10.13;5.43;;;;;;;20.04;100.00;98625.41;4956251;28;20313;-64
2023/06/22 02:10:41;;;;;;;9.00;6.17;;;;;;;19.98;100.00;98618.31;4958556;28;20235;-64
2023/06/22 02:13:11;;;;;;;17.97;5.70;;;;;;;19.98;100.00;98620.16;4954682;28;20785;-64
2023/06/22 02:15:38;;;;;;;11.90;6.30;;;;;;;19.93;100.00;98626.06;4956583;28;20712;-64
2023/06/22 02:18:06;;;;;;;10.87;6.17;;;;;;;19.93;100.00;98615.47;4956186;28;20228;-64
2023/06/22 02:20:37;;;;;;;11.70;6.20;;;;;;;19.94;100.00;98605.72;4961905;28;20229;-64
2023/06/22 02:23:04;;;;;;;12.83;5.90;;;;;;;19.87;100.00;98601.22;4973849;28;20230;-64
2023/06/22 02:25:31;;;;;;;11.50;6.40;;;;;;;19.84;100.00;98584.94;4977361;28;20303;-64
2023/06/22 02:27:58;;;;;;;9.13;5.70;;;;;;;19.81;100.00;98586.19;4954921;28;20242;-64
2023/06/22 02:30:24;;;;;;;9.53;5.70;;;;;;;19.79;100.00;98582.94;4971953;28;20692;-64
2023/06/22 02:32:58;;;;;;;10.40;5.90;;;;;;;19.80;100.00;98568.66;4974721;28;20600;-64
2023/06/22 02:35:25;;;;;;;9.63;5.87;;;;;;;19.76;100.00;98578.06;4951784;28;20656;-64
2023/06/22 02:37:54;;;;;;;10.20;6.00;;;;;;;19.76;100.00;98575.41;4954753;28;20249;-64
2023/06/22 02:40:25;;;;;;;9.83;5.90;;;;;;;19.80;100.00;98562.53;4953571;28;20245;-64
2023/06/22 02:42:52;;;;;;;8.80;5.97;;;;;;;19.85;100.00;98565.38;4955610;28;20673;-64
2023/06/22 02:45:23;;;;;;;13.83;6.60;;;;;;;19.91;100.00;98549.47;4971584;28;20238;-64
2023/06/22 02:47:51;;;;;;;10.90;6.13;;;;;;;20.04;100.00;98553.88;4956498;28;20257;-64
2023/06/22 02:50:20;;;;;;;10.53;5.87;;;;;;;20.08;100.00;98558.75;4954818;28;20223;-64
2023/06/22 02:52:47;;;;;;;11.83;5.60;;;;;;;20.05;100.00;98552.03;4954593;28;20284;-64
2023/06/22 02:55:16;;;;;;;10.13;5.37;;;;;;;20.02;100.00;98544.53;4953789;28;20228;-64
2023/06/22 02:57:52;;;;;;;12.10;5.63;;;;;;;20.06;100.00;98546.53;4954958;28;20245;-64
2023/06/22 03:00:30;;;;;;;9.20;5.57;;;;;;;20.12;100.00;98544.88;4971557;28;20616;-64
2023/06/22 03:02:57;;;;;;;12.83;5.80;;;;;;;20.19;100.00;98544.81;4973949;28;20588;-64
2023/06/22 03:05:24;;;;;;;12.57;6.00;;;;;;;20.21;99.80;98545.41;4955578;28;20234;-64
2023/06/22 03:07:51;;;;;;;11.67;5.97;;;;;;;20.23;99.16;98545.16;4958217;28;20244;-64
2023/06/22 03:10:25;;;;;;;11.77;6.47;;;;;;;20.27;99.00;98543.72;4950899;28;20233;-64
2023/06/22 03:12:52;;;;;;;10.53;5.90;;;;;;;20.27;98.66;98543.72;4957041;28;20234;-64
2023/06/22 03:15:24;;;;;;;10.47;5.60;;;;;;;20.27;98.29;98536.59;4953034;28;20904;-64
2023/06/22 03:17:56;;;;;;;9.77;5.93;;;;;;;20.27;98.51;98549.00;4967045;28;20294;-64
2023/06/22 03:20:26;;;;;;;11.33;6.00;;;;;;;20.27;98.44;98556.97;4953827;28;20222;-64
2023/06/22 03:22:53;;;;;;;10.10;6.03;;;;;;;20.25;97.83;98546.59;4960556;28;20243;-64
2023/06/22 03:25:25;;;;;;;9.07;5.63;;;;;;;20.27;98.89;98551.66;4952406;28;20278;-64
2023/06/22 03:27:52;;;;;;;10.93;6.27;;;;;;;20.19;98.88;98545.59;4952371;28;20314;-64
2023/06/22 03:33:04;;;;;;;9.27;5.73;;;;;;;20.10;100.00;98538.97;4942416;28;20230;-64
2023/06/22 03:35:31;;;;;;;10.93;4.80;;;;;;;20.03;100.00;98540.84;4958662;28;20233;-64
2023/06/22 03:37:57;;;;;;;10.03;5.17;;;;;;;20.00;100.00;98549.22;4961981;28;20247;-64
2023/06/22 03:40:25;;;;;;;10.23;5.00;;;;;;;19.94;100.00;98539.47;4951881;28;20272;-64
2023/06/22 03:42:52;;;;;;;13.13;5.97;;;;;;;19.89;100.00;98545.41;4980865;28;20288;-64
2023/06/22 03:45:23;;;;;;;9.00;5.17;;;;;;;19.85;100.00;98534.41;4959678;28;20240;-64
2023/06/22 03:47:50;;;;;;;11.93;5.23;;;;;;;19.84;100.00;98532.78;4967381;28;20763;-64
2023/06/22 03:50:17;;;;;;;8.57;5.40;;;;;;;19.86;100.00;98528.09;4946733;28;20229;-64
2023/06/22 03:52:43;;;;;;;13.23;5.17;;;;;;;19.84;100.00;98522.19;4967166;28;20249;-64
2023/06/22 03:55:10;;;;;;;9.93;4.77;;;;;;;19.82;100.00;98515.47;4964389;28;20600;-64
2023/06/22 03:57:38;;;;;;;10.50;5.00;;;;;;;19.93;100.00;98519.31;4964801;28;20262;-64
2023/06/22 04:00:06;;;;;;;13.53;5.53;;;;;;;19.92;100.00;98518.50;4965520;28;20230;-64
2023/06/22 04:02:38;;;;;;;11.57;5.90;;;;;;;20.19;99.20;98521.75;4961651;28;20260;-64
2023/06/22 04:05:06;;;;;;;10.93;5.23;;;;;;;20.69;93.50;98517.44;4961428;28;20234;-64
2023/06/22 04:07:32;;;;;;;13.67;5.70;;;;;;;20.82;93.28;98521.81;4966961;28;20233;-64
2023/06/22 04:09:59;;;;;;;9.67;5.13;;;;;;;20.99;89.14;98522.06;4965958;28;20783;-64
2023/06/22 04:12:25;;;;;;;9.90;5.07;;;;;;;21.19;88.07;98535.09;4963322;28;20239;-64
2023/06/22 04:14:53;;;;;;;9.73;4.80;;;;;;;21.39;85.21;98531.38;4967099;28;20250;-64
2023/06/22 04:17:20;;;;;;;8.80;5.00;;;;;;;21.51;84.88;98528.78;4965021;28;20606;-64
2023/06/22 04:19:46;;;;;;;12.00;4.87;;;;;;;21.60;84.97;98526.63;4967455;28;20231;-64
2023/06/22 04:22:13;;;;;;;9.80;5.00;;;;;;;21.66;86.25;98529.22;4964634;28;20294;-64
2023/06/22 04:24:39;;;;;;;9.30;4.63;;;;;;;21.57;87.93;98522.56;4967313;28;20239;-64
2023/06/22 04:27:06;;;;;;;10.20;4.30;;;;;;;21.51;88.24;98520.81;4967573;28;20627;-64
2023/06/22 04:29:33;;;;;;;9.13;4.40;;;;;;;21.47;88.63;98511.66;4968097;28;20227;-64
2023/06/22 04:32:06;;;;;;;13.27;4.77;;;;;;;21.45;89.00;98505.78;4965316;28;20239;-64
2023/06/22 04:34:32;;;;;;;10.03;4.67;;;;;;;21.42;89.81;98495.59;4963485;28;20699;-64
2023/06/22 04:36:59;;;;;;;10.23;4.77;;;;;;;21.41;89.53;98500.13;4967531;28;20287;-64
2023/06/22 04:39:27;;;;;;;10.97;4.93;;;;;;;21.43;91.38;98502.53;4956290;28;20253;-64
2023/06/22 04:41:54;;;;;;;9.30;4.33;;;;;;;21.43;91.21;98499.88;4962092;28;20232;-64
2023/06/22 04:44:24;;;;;;;8.80;4.67;;;;;;;21.44;90.47;98506.81;4962025;28;20317;-64
2023/06/22 04:46:53;;;;;;;7.73;4.50;;;;;;;21.49;90.82;98501.63;4965085;28;20303;-64
2023/06/22 04:49:22;;;;;;;9.07;4.70;;;;;;;21.57;90.50;98505.84;4964162;28;20251;-64
2023/06/22 04:51:49;;;;;;;9.10;4.33;;;;;;;21.60;91.04;98497.41;4969596;28;20927;-64
2023/06/22 04:54:16;;;;;;;6.27;4.10;;;;;;;21.66;91.16;98500.00;4960544;28;20238;-64
2023/06/22 04:56:42;;;;;;;12.77;4.30;;;;;;;21.70;90.80;98489.75;4965713;28;20277;-64
2023/06/22 04:59:12;;;;;;;7.73;4.33;;;;;;;21.75;91.04;98486.38;4962295;28;20235;-64
2023/06/22 05:01:39;;;;;;;11.50;4.60;;;;;;;21.78;91.98;98497.34;4961999;28;20275;-64
2023/06/22 05:04:06;;;;;;;10.73;5.00;;;;;;;21.85;90.97;98491.97;4964032;28;20228;-64
2023/06/22 05:06:34;;;;;;;10.00;4.60;;;;;;;21.77;91.32;98492.28;4965678;28;20237;-64
2023/06/22 05:09:01;;;;;;;11.63;5.00;;;;;;;21.78;91.95;98496.56;4968768;28;20225;-64
2023/06/22 05:11:29;;;;;;;10.43;5.97;;;;;;;21.79;92.03;98493.66;4966536;28;20234;-64
2023/06/22 05:13:56;;;;;;;9.67;5.10;;;;;;;21.83;92.80;98494.84;4970570;28;20225;-64
2023/06/22 05:16:24;;;;;;;11.73;6.17;;;;;;;21.83;92.23;98489.50;4965429;28;20312;-64
2023/06/22 05:18:53;;;;;;;9.50;5.50;;;;;;;21.83;94.28;98486.84;4969510;28;20255;-64
2023/06/22 05:21:20;;;;;;;7.60;4.83;;;;;;;21.84;94.60;98487.69;4963727;28;20236;-64
2023/06/22 05:23:47;;;;;;;11.47;5.13;;;;;;;21.91;93.85;98487.56;4969049;28;20689;-67
2023/06/22 05:26:14;;;;;;;8.67;5.43;;;;;;;21.89;92.84;98484.31;4966637;28;20705;-65
2023/06/22 05:28:40;;;;;;;12.63;4.70;;;;;;;21.92;94.12;98491.84;4968931;28;20627;-64
2023/06/22 05:31:07;;;;;;;8.57;5.03;;;;;;;22.08;92.93;98485.88;4967575;28;20229;-64
2023/06/22 05:33:34;;;;;;;9.13;4.77;;;;;;;22.04;92.80;98486.56;4969454;28;20228;-64
2023/06/22 05:36:00;;;;;;;9.57;4.90;;;;;;;22.14;92.42;98493.97;4971110;28;20252;-64
2023/06/22 05:38:27;;;;;;;9.23;5.17;;;;;;;22.19;92.29;98486.09;4965197;28;20295;-64
2023/06/22 05:40:55;;;;;;;10.07;5.23;;;;;;;22.32;92.63;98493.03;4966657;28;20253;-64
2023/06/22 05:43:22;;;;;;;9.70;5.20;;;;;;;22.56;90.18;98486.72;4962425;28;20244;-64
2023/06/22 05:45:48;;;;;;;11.87;4.83;;;;;;;22.87;87.12;98488.41;4970333;28;20228;-64
2023/06/22 05:48:15;;;;;;;8.80;4.50;;;;;;;23.03;85.65;98498.31;4964732;28;20231;-64
2023/06/22 05:50:42;;;;;;;7.13;4.83;;;;;;;23.19;86.16;98496.75;4964750;28;20233;-64
2023/06/22 05:53:09;;;;;;;6.27;4.27;;;;;;;23.33;85.49;98491.19;4964915;28;20241;-64
2023/06/22 05:55:36;;;;;;;10.03;6.40;;;;;;;23.37;83.97;98509.09;4968760;28;20272;-64
2023/06/22 05:58:04;;;;;;;8.70;6.97;;;;;;;22.98;87.38;98509.66;4964159;28;20719;-64
2023/06/22 06:00:30;;;;;;;11.03;7.30;;;;;;;22.88;87.63;98511.31;4965746;28;20261;-64
2023/06/22 06:03:03;;;;;;;12.57;7.20;;;;;;;22.91;88.01;98510.84;4969740;28;20249;-64
2023/06/22 06:05:29;;;;;;;10.93;7.47;;;;;;;22.96;87.85;98505.63;4966539;28;20759;-64
2023/06/22 06:07:56;;;;;;;10.90;7.03;;;;;;;23.20;87.50;98508.22;4967677;28;20308;-64
2023/06/22 06:10:23;;;;;;;13.00;7.23;;;;;;;23.34;85.21;98504.25;4967140;28;20685;-64
2023/06/22 06:12:50;;;;;;;10.93;7.10;;;;;;;23.32;84.94;98493.03;4973504;28;20244;-64
2023/06/22 06:15:18;;;;;;;11.47;6.70;;;;;;;23.41;84.43;98514.78;4966550;28;20233;-64
2023/06/22 06:17:48;;;;;;;12.60;7.93;;;;;;;23.50;82.78;98499.22;4962060;28;20290;-65
2023/06/22 06:20:15;;;;;;;13.33;7.70;;;;;;;23.36;83.53;98507.50;4958444;28;20616;-64
2023/06/22 06:22:42;;;;;;;11.10;7.30;;;;;;;23.36;84.27;98499.50;4963163;28;20247;-64
2023/06/22 06:25:10;;;;;;;11.00;6.90;;;;;;;23.41;83.68;98507.59;4965789;28;20323;-64
2023/06/22 06:27:36;;;;;;;11.63;8.33;;;;;;;23.34;85.19;98506.13;4971715;28;20239;-64
2023/06/22 06:30:04;;;;;;;13.30;8.50;;;;;;;23.43;85.22;98502.81;4963842;28;20222;-65
2023/06/22 06:32:31;;;;;;;13.50;8.83;;;;;;;23.10;86.64;98499.00;4966612;28;20702;-65
2023/06/22 06:34:58;;;;;;;16.33;8.77;;;;;;;23.24;85.72;98491.56;4966173;28;20570;-65
2023/06/22 06:37:24;;;;;;;10.27;7.60;;;;;;;23.51;86.22;98495.50;4966485;28;20297;-65
2023/06/22 06:39:51;;;;;;;12.40;8.03;;;;;;;23.52;86.13;98497.94;4970762;28;20232;-65
2023/06/22 06:42:19;;;;;;;13.83;8.57;;;;;;;23.68;84.67;98496.34;4966727;28;20227;-65
2023/06/22 06:44:45;;;;;;;15.07;9.40;;;;;;;23.58;85.26;98499.66;4966510;28;20726;-65
2023/06/22 06:47:12;;;;;;;12.07;8.27;;;;;;;23.94;83.33;98496.78;4966218;28;20275;-65
2023/06/22 06:49:40;;;;;;;10.60;8.33;;;;;;;23.90;82.67;98503.66;4967580;28;20247;-65
2023/06/22 06:52:07;;;;;;;13.57;8.90;;;;;;;23.74;84.21;98516.72;4965638;28;20287;-65
2023/06/22 06:54:34;;;;;;;15.67;8.93;;;;;;;23.56;85.09;98522.25;4966616;28;20604;-65
2023/06/22 06:57:02;;;;;;;13.27;9.07;;;;;;;23.65;84.98;98531.47;4972136;28;20568;-65
2023/06/22 06:59:30;;;;;;;13.40;8.77;;;;;;;23.60;84.96;98526.03;4966501;28;20243;-64
2023/06/22 07:01:56;;;;;;;13.50;8.53;;;;;;;23.63;84.79;98520.25;4965968;28;20238;-64
2023/06/22 07:04:23;;;;;;;13.23;8.47;;;;;;;23.61;85.51;98519.66;4965021;28;20244;-64
2023/06/22 07:06:51;;;;;;;12.70;8.37;;;;;;;23.73;84.58;98528.41;4967997;28;20234;-64
2023/06/22 07:09:18;;;;;;;12.17;8.63;;;;;;;23.89;84.17;98534.81;4966469;28;20235;-64
2023/06/22 07:11:45;;;;;;;13.37;8.10;;;;;;;24.23;81.36;98525.25;4968502;28;20240;-64
2023/06/22 07:14:11;;;;;;;13.33;8.30;;;;;;;24.38;79.08;98524.69;4960218;28;20239;-64
2023/06/22 07:16:38;;;;;;;11.53;8.03;;;;;;;24.51;77.85;98521.66;4965064;28;20240;-64
2023/06/22 07:19:04;;;;;;;11.00;7.60;;;;;;;24.69;76.78;98517.09;4962927;28;20267;-64
2023/06/22 07:21:31;;;;;;;12.93;7.13;;;;;;;24.89;76.65;98509.41;4965872;28;20291;-64
2023/06/22 07:23:59;;;;;;;14.53;7.93;;;;;;;24.78;75.02;98518.34;4967919;28;20650;-64
2023/06/22 07:26:25;;;;;;;13.23;7.53;;;;;;;25.05;74.31;98522.94;4965035;28;20225;-64
2023/06/22 07:28:52;;;;;;;11.63;7.37;;;;;;;25.35;73.29;98525.16;4965274;28;20226;-65
2023/06/22 07:31:18;;;;;;;14.57;7.67;;;;;;;25.58;70.81;98533.16;4962677;28;20289;-65
2023/06/22 07:33:45;;;;;;;11.37;7.33;;;;;;;25.68;71.18;98524.44;4965572;28;20234;-65
2023/06/22 07:36:12;;;;;;;13.90;8.07;;;;;;;25.41;72.03;98526.03;4966882;28;20299;-65
2023/06/22 07:38:38;;;;;;;10.53;7.63;;;;;;;24.85;74.56;98531.50;4969547;28;20230;-65
2023/06/22 07:41:06;;;;;;;11.00;6.97;;;;;;;25.23;75.57;98547.72;4963664;28;20579;-65
2023/06/22 07:43:34;;;;;;;9.47;7.03;;;;;;;25.41;74.17;98558.09;4966718;28;20289;-65
2023/06/22 07:46:00;;;;;;;11.83;7.53;;;;;;;25.10;75.88;98552.38;4966181;28;20785;-65
2023/06/22 07:48:27;;;;;;;15.67;7.67;;;;;;;25.12;75.82;98554.78;4964628;28;20242;-65
2023/06/22 07:50:53;;;;;;;9.53;6.77;;;;;;;25.19;74.65;98566.09;4966432;28;20238;-65
2023/06/22 07:53:22;;;;;;;13.27;7.00;;;;;;;25.14;73.32;98593.56;4962762;28;20280;-65
2023/06/22 07:55:49;;;;;;;14.33;7.80;;;;;;;25.05;76.02;98609.19;4963559;28;20224;-65
2023/06/22 07:58:18;;;;;;;12.47;6.97;;;;;;;24.83;77.90;98633.19;4956266;28;20222;-65
2023/06/22 08:00:45;;;;;;;12.37;9.33;;;;;;;24.29;81.52;98641.63;4963345;28;20253;-65
2023/06/22 08:03:12;;;;;;;12.63;8.07;;;;;;;24.36;81.17;98634.28;4942820;28;20238;-66
2023/06/22 08:05:38;;;;;;;13.37;8.23;;;;;;;24.27;79.96;98628.56;4940789;28;20229;-66
2023/06/22 08:08:05;;;;;;;16.07;8.10;;;;;;;24.08;81.63;98608.47;4948123;28;20222;-66
2023/06/22 08:10:32;;;;;;;16.00;7.93;;;;;;;23.95;83.95;98581.03;4950613;28;20275;-66
2023/06/22 08:12:58;;;;;;;13.37;8.37;;;;;;;23.67;85.49;98540.03;4950730;28;20228;-66
2023/06/22 08:15:31;;;;;;;15.90;8.37;;;;;;;23.65;86.31;98499.50;4925718;28;20287;-66
2023/06/22 08:17:59;;;;;;;13.17;8.20;;;;;;;24.09;84.45;98484.78;4907880;28;20672;-66
2023/06/22 08:20:29;;;;;;;11.80;8.40;;;;;;;24.71;80.27;98490.97;4941964;28;20249;-66
2023/06/22 08:23:09;;;;;;;14.20;7.67;;;;;;;25.25;76.83;98516.22;4953725;28;20371;-67
2023/06/22 08:25:36;;;;;;;14.80;8.17;;;;;;;25.45;76.07;98561.88;4847180;28;20877;-67
2023/06/22 08:28:04;;;;;;;16.07;8.60;;;;;;;25.72;74.46;98547.75;4953501;28;20234;-67
2023/06/22 08:30:32;;;;;;;13.03;8.90;;;;;;;25.59;74.36;98556.97;4952791;28;20232;-67
2023/06/22 08:32:59;;;;;;;15.23;9.33;;;;;;;25.90;72.84;98580.53;4927359;28;20718;-67
2023/06/22 08:35:26;;;;;;;15.47;9.43;;;;;;;26.04;72.19;98578.22;4944733;28;20222;-67
2023/06/22 08:37:54;;;;;;;13.33;8.73;;;;;;;26.11;70.96;98596.78;4963229;28;20296;-67
2023/06/22 08:40:24;;;;;;;12.87;8.30;;;;;;;26.57;68.18;98593.69;4960158;28;20691;-67
2023/06/22 08:42:50;;;;;;;13.90;8.70;;;;;;;26.31;67.27;98585.47;4961551;28;20326;-67
2023/06/22 08:45:43;;;;;;;11.37;7.60;;;;;;;26.63;67.97;98606.03;4963000;28;20238;-67
2023/06/22 08:48:10;;;;;;;14.00;8.13;;;;;;;26.06;67.74;98581.47;4958372;28;20234;-67
2023/06/22 08:50:36;;;;;;;15.20;7.70;;;;;;;26.57;67.36;98599.03;4968830;28;20275;-67
2023/06/22 08:53:03;;;;;;;12.77;8.47;;;;;;;26.61;68.61;98587.53;4966508;28;20218;-67
2023/06/22 08:55:29;;;;;;;11.10;7.50;;;;;;;26.94;67.11;98580.28;4969036;28;20236;-64
2023/06/22 08:57:56;;;;;;;9.93;7.80;;;;;;;26.95;67.27;98575.75;4971282;28;20248;-64
2023/06/22 09:00:23;;;;;;;12.33;8.07;;;;;;;27.17;67.57;98586.28;4966179;28;20243;-64
2023/06/22 09:02:51;;;;;;;14.63;9.93;;;;;;;26.84;68.14;98566.84;4969247;28;20988;-64
2023/06/22 09:06:03;;;;;;;13.07;9.40;;;;;;;26.96;67.50;98578.16;4956161;28;20222;-65
2023/06/22 09:08:29;;;;;;;16.40;9.90;;;;;;;26.87;67.32;98577.03;4966366;28;20579;-65
2023/06/22 09:10:56;;;;;;;13.40;9.32;;;;;;;26.93;66.99;98576.00;4964213;28;20271;-65
2023/06/22 09:13:23;;;;;;;15.20;7.47;;;;;;;27.30;67.95;98552.84;4967352;28;23243;-65
2023/06/22 09:15:49;;;;;;;12.70;9.80;;;;;;;27.44;65.59;98545.13;4969222;28;20227;-65
2023/06/22 09:18:17;;;;;;;13.60;8.97;;;;;;;27.74;64.42;98532.06;4957512;28;20240;-65
2023/06/22 09:20:45;;;;;;;13.50;8.90;;;;;;;27.98;63.99;98513.56;4965727;28;20604;-65
2023/06/22 09:23:12;;;;;;;15.52;8.77;;;;;;;28.13;62.45;98505.53;4965702;28;20250;-65
2023/06/22 09:25:40;;;;;;;13.50;8.70;;;;;;;28.14;61.83;98499.09;4970122;28;20564;-65
2023/06/22 09:28:06;;;;;;;14.18;8.30;;;;;;;28.06;61.73;98494.25;4965237;28;20235;-65
2023/06/22 09:30:33;;;;;;;13.45;8.13;;;;;;;28.37;63.58;98483.50;4969577;28;20245;-65
2023/06/22 09:33:01;;;;;;;11.90;8.20;;;;;;;28.55;60.38;98474.06;4965324;28;20239;-65
2023/06/22 09:35:28;;;;;;;12.75;8.25;;;;;;;27.98;60.88;98467.97;4965722;28;20236;-65
2023/06/22 09:37:55;;;;;;;12.25;7.72;;;;;;;27.93;61.86;98466.09;4970066;28;20230;-65
2023/06/22 09:40:24;;;;;;;11.50;7.70;;;;;;;27.98;62.30;98471.47;4966617;28;20230;-65
2023/06/22 09:42:50;;;;;;;14.33;7.50;;;;;;;28.43;61.86;98470.88;4970034;28;20286;-65
2023/06/22 09:45:20;;;;;;;12.50;7.30;;;;;;;28.49;61.09;98464.41;4965907;28;20633;-65
2023/06/22 09:47:47;;;;;;;13.45;8.00;;;;;;;28.50;62.40;98470.59;4967726;28;20757;-65
2023/06/22 09:50:14;;;;;;;13.00;8.48;;;;;;;28.55;61.09;98486.69;4970748;28;20244;-65
2023/06/22 09:52:44;;;;;;;13.45;8.93;;;;;;;28.34;62.78;98494.78;4971931;28;20277;-65
2023/06/22 09:55:11;;;;;;;11.57;8.13;;;;;;;28.29;62.54;98497.47;4965099;28;20244;-65
2023/06/22 09:57:37;;;;;;;11.23;7.40;;;;;;;28.97;60.57;98501.59;4965639;28;20238;-65
2023/06/22 10:00:08;;;;;;;14.52;8.85;;;;;;;29.02;58.91;98495.41;4962766;28;20238;-65
2023/06/22 10:02:35;;;;;;;11.60;7.68;;;;;;;29.28;60.88;98493.38;4966965;28;20235;-65
2023/06/22 10:05:02;;;;;;;10.65;8.15;;;;;;;29.53;58.04;98488.94;4969521;28;20240;-65
2023/06/22 10:07:28;;;;;;;14.43;7.82;;;;;;;29.45;57.66;98484.16;4966201;28;20719;-65
2023/06/22 10:09:56;;;;;;;10.50;7.60;;;;;;;29.70;58.11;98477.78;4970933;28;20704;-65
2023/06/22 10:12:23;;;;;;;11.93;7.70;;;;;;;29.76;57.67;98470.47;4965116;28;23160;-65
2023/06/22 10:14:49;;;;;;;14.63;8.60;;;;;;;30.00;56.04;98464.38;4968811;28;20239;-65
2023/06/22 10:17:16;;;;;;;10.68;7.22;;;;;;;30.22;56.87;98473.88;4967529;28;20244;-65
2023/06/22 10:19:42;;;;;;;11.93;7.10;;;;;;;30.54;53.90;98469.78;4968264;28;20237;-65
2023/06/22 10:22:09;;;;;;;12.02;7.57;;;;;;;30.46;54.34;98472.00;4966026;28;20233;-65
2023/06/22 10:24:35;;;;;;;10.63;7.53;;;;;;;30.78;53.48;98467.09;4968747;28;20252;-65
2023/06/22 10:27:03;;;;;;;10.48;7.50;;;;;;;30.69;54.03;98463.41;4965445;28;20230;-65
2023/06/22 10:29:30;;;;;;;16.55;8.55;;;;;;;30.38;54.62;98464.56;4964952;28;20233;-65
2023/06/22 10:31:57;;;;;;;15.48;8.43;;;;;;;30.12;55.94;98480.97;4966691;28;20233;-65
2023/06/22 10:34:23;;;;;;;10.48;7.63;;;;;;;30.34;55.05;98463.50;4966366;28;20303;-65
2023/06/22 10:36:50;;;;;;;13.93;8.82;;;;;;;29.91;56.44;98464.19;4969976;28;20241;-65
2023/06/22 10:39:16;;;;;;;11.27;7.40;;;;;;;30.41;57.23;98465.84;4966130;28;20265;-65
2023/06/22 10:41:43;;;;;;;12.70;7.63;;;;;;;30.69;54.57;98466.94;4966060;28;20247;-65
2023/06/22 10:44:12;;;;;;;10.82;7.90;;;;;;;30.98;54.45;98463.31;4962518;28;20304;-65
2023/06/22 10:46:38;;;;;;;12.93;6.93;;;;;;;31.33;53.36;98453.16;4970575;28;20252;-65
2023/06/22 10:49:05;;;;;;;12.85;7.90;;;;;;;31.15;53.38;98453.94;4965574;28;20240;-65
2023/06/22 10:51:32;;;;;;;13.23;7.28;;;;;;;31.77;51.09;98467.31;4969410;28;20296;-65
2023/06/22 10:53:58;;;;;;;11.23;7.15;;;;;;;31.74;52.78;98465.22;4967198;28;20379;-65
2023/06/22 10:56:25;;;;;;;12.38;7.82;;;;;;;31.92;52.08;98468.16;4963785;28;20245;-65
2023/06/22 10:58:51;;;;;;;9.90;7.15;;;;;;;31.83;49.74;98469.94;4967202;28;20225;-65
2023/06/22 11:01:21;;;;;;;10.77;7.60;;;;;;;31.46;51.79;98465.09;4963004;28;20225;-65
2023/06/22 11:03:47;;;;;;;14.27;8.13;;;;;;;31.43;52.18;98452.19;4969923;28;20761;-65
2023/06/22 11:06:15;;;;;;;11.95;7.82;;;;;;;31.15;52.66;98446.66;4965636;28;20225;-65
2023/06/22 11:08:44;;;;;;;14.90;7.40;;;;;;;31.24;53.85;98446.03;4967198;28;20253;-65
2023/06/22 11:11:11;;;;;;;13.40;7.53;;;;;;;31.39;52.95;98445.78;4965910;28;20237;-65
2023/06/22 11:13:38;;;;;;;14.35;8.15;;;;;;;31.46;51.65;98440.81;4966558;28;20248;-65
2023/06/22 11:16:04;;;;;;;12.80;7.03;;;;;;;31.76;53.40;98438.75;4965766;28;20242;-65
2023/06/22 11:18:33;;;;;;;12.88;7.15;;;;;;;31.90;52.54;98438.75;4966337;28;20234;-65
2023/06/22 11:21:00;;;;;;;10.60;7.20;;;;;;;31.39;53.70;98436.91;4960471;28;20238;-65
2023/06/22 11:23:27;;;;;;;10.98;7.10;;;;;;;31.83;50.83;98443.75;4964284;28;20817;-65
2023/06/22 11:25:54;;;;;;;11.00;7.40;;;;;;;31.74;51.00;98459.03;4968467;28;20240;-65
2023/06/22 11:28:20;;;;;;;12.82;7.85;;;;;;;31.11;53.75;98471.78;4966555;28;20265;-65
2023/06/22 11:30:47;;;;;;;8.07;6.68;;;;;;;31.21;55.05;98483.25;4967913;28;20225;-65